Terminal Aerodrome Forecast
Issued by NWS

Home | Current Version | Previous Version | Text Only | Print | Product List | Glossary On
Versions: 1 2 3 4 5 6 7 8 9 10 11 12 13 14 15 16 17 18 19 20
000
FTUS44 KLZK 281500 AAA
TAFPBF
TAF AMD
KPBF 281514Z 2815/2912 36011G20KT P6SM VCSH BKN100
      TEMPO 2815/2817 -SHRA OVC090
     FM290100 33009KT P6SM -SHRA BKN015 BKN035
     FM290700 32003KT P6SM BKN050=

USA.gov is the U.S. government's official web portal to all federal, state and local government web resources and services.